sensor_id;sensor_type;location;lat;lon;timestamp;P1;durP1;ratioP1;P2;durP2;ratioP2
77226;SDS011;66234;47.642;19.144;2024-02-23T00:02:20;5.03;;;1.77;;
77226;SDS011;66234;47.642;19.144;2024-02-23T00:05:23;2.78;;;1.80;;
77226;SDS011;66234;47.642;19.144;2024-02-23T00:08:27;5.85;;;1.67;;
77226;SDS011;66234;47.642;19.144;2024-02-23T00:11:29;5.60;;;1.40;;
77226;SDS011;66234;47.642;19.144;2024-02-23T00:14:33;3.23;;;1.87;;
77226;SDS011;66234;47.642;19.144;2024-02-23T00:17:40;5.23;;;2.00;;
77226;SDS011;66234;47.642;19.144;2024-02-23T00:20:42;3.80;;;1.65;;
77226;SDS011;66234;47.642;19.144;2024-02-23T00:23:45;3.63;;;1.60;;
77226;SDS011;66234;47.642;19.144;2024-02-23T00:26:48;3.20;;;1.90;;
77226;SDS011;66234;47.642;19.144;2024-02-23T00:29:53;3.63;;;1.67;;
77226;SDS011;66234;47.642;19.144;2024-02-23T00:32:55;3.30;;;1.50;;
77226;SDS011;66234;47.642;19.144;2024-02-23T00:35:59;3.53;;;1.67;;
77226;SDS011;66234;47.642;19.144;2024-02-23T00:39:02;4.55;;;1.63;;
77226;SDS011;66234;47.642;19.144;2024-02-23T00:42:04;2.85;;;1.45;;
77226;SDS011;66234;47.642;19.144;2024-02-23T00:45:08;2.93;;;1.70;;
77226;SDS011;66234;47.642;19.144;2024-02-23T00:48:15;3.40;;;1.57;;
77226;SDS011;66234;47.642;19.144;2024-02-23T00:51:18;2.88;;;1.77;;
77226;SDS011;66234;47.642;19.144;2024-02-23T00:54:21;4.32;;;1.48;;
77226;SDS011;66234;47.642;19.144;2024-02-23T00:57:24;3.47;;;1.63;;
77226;SDS011;66234;47.642;19.144;2024-02-23T01:00:32;3.03;;;1.63;;
77226;SDS011;66234;47.642;19.144;2024-02-23T01:03:35;3.90;;;1.50;;
77226;SDS011;66234;47.642;19.144;2024-02-23T01:06:38;3.38;;;2.03;;
77226;SDS011;66234;47.642;19.144;2024-02-23T01:09:41;3.50;;;1.80;;
77226;SDS011;66234;47.642;19.144;2024-02-23T01:12:43;4.43;;;1.30;;
77226;SDS011;66234;47.642;19.144;2024-02-23T01:15:47;2.67;;;1.80;;
77226;SDS011;66234;47.642;19.144;2024-02-23T01:18:51;4.30;;;1.77;;
77226;SDS011;66234;47.642;19.144;2024-02-23T01:21:54;6.03;;;1.83;;
77226;SDS011;66234;47.642;19.144;2024-02-23T01:25:02;3.28;;;1.88;;
77226;SDS011;66234;47.642;19.144;2024-02-23T01:28:06;5.45;;;2.13;;
77226;SDS011;66234;47.642;19.144;2024-02-23T01:31:09;3.83;;;1.73;;
77226;SDS011;66234;47.642;19.144;2024-02-23T01:34:15;4.43;;;1.53;;
77226;SDS011;66234;47.642;19.144;2024-02-23T01:37:18;3.33;;;1.67;;
77226;SDS011;66234;47.642;19.144;2024-02-23T01:40:24;5.38;;;1.90;;
77226;SDS011;66234;47.642;19.144;2024-02-23T01:43:26;4.65;;;1.67;;
77226;SDS011;66234;47.642;19.144;2024-02-23T01:46:29;5.23;;;1.73;;
77226;SDS011;66234;47.642;19.144;2024-02-23T01:49:37;4.17;;;2.13;;
77226;SDS011;66234;47.642;19.144;2024-02-23T01:52:40;6.32;;;2.72;;
77226;SDS011;66234;47.642;19.144;2024-02-23T01:55:43;4.57;;;2.40;;
77226;SDS011;66234;47.642;19.144;2024-02-23T01:58:48;5.28;;;2.15;;
77226;SDS011;66234;47.642;19.144;2024-02-23T02:01:51;2.97;;;2.13;;
77226;SDS011;66234;47.642;19.144;2024-02-23T02:04:54;3.60;;;1.77;;
77226;SDS011;66234;47.642;19.144;2024-02-23T02:07:56;3.85;;;1.40;;
77226;SDS011;66234;47.642;19.144;2024-02-23T02:11:03;3.03;;;1.73;;
77226;SDS011;66234;47.642;19.144;2024-02-23T02:14:05;2.70;;;1.60;;
77226;SDS011;66234;47.642;19.144;2024-02-23T02:17:09;4.60;;;2.20;;
77226;SDS011;66234;47.642;19.144;2024-02-23T02:20:14;4.00;;;2.17;;
77226;SDS011;66234;47.642;19.144;2024-02-23T02:23:16;3.35;;;1.73;;
77226;SDS011;66234;47.642;19.144;2024-02-23T02:26:19;3.50;;;2.05;;
77226;SDS011;66234;47.642;19.144;2024-02-23T02:29:21;2.88;;;2.00;;
77226;SDS011;66234;47.642;19.144;2024-02-23T02:32:24;4.97;;;2.40;;
77226;SDS011;66234;47.642;19.144;2024-02-23T02:35:27;2.83;;;1.80;;
77226;SDS011;66234;47.642;19.144;2024-02-23T02:38:30;3.75;;;1.90;;
77226;SDS011;66234;47.642;19.144;2024-02-23T02:41:32;5.05;;;2.45;;
77226;SDS011;66234;47.642;19.144;2024-02-23T02:44:35;3.97;;;2.00;;
77226;SDS011;66234;47.642;19.144;2024-02-23T02:47:38;4.67;;;2.23;;
77226;SDS011;66234;47.642;19.144;2024-02-23T02:50:43;4.10;;;1.87;;
77226;SDS011;66234;47.642;19.144;2024-02-23T02:53:46;3.95;;;2.20;;
77226;SDS011;66234;47.642;19.144;2024-02-23T02:56:49;3.60;;;2.17;;
77226;SDS011;66234;47.642;19.144;2024-02-23T02:59:53;11.55;;;2.72;;
77226;SDS011;66234;47.642;19.144;2024-02-23T03:02:56;5.47;;;3.10;;
77226;SDS011;66234;47.642;19.144;2024-02-23T03:05:59;5.53;;;2.47;;
77226;SDS011;66234;47.642;19.144;2024-02-23T03:09:01;5.38;;;3.20;;
77226;SDS011;66234;47.642;19.144;2024-02-23T03:12:05;4.20;;;3.10;;
77226;SDS011;66234;47.642;19.144;2024-02-23T03:15:08;5.35;;;3.50;;
77226;SDS011;66234;47.642;19.144;2024-02-23T03:18:13;7.37;;;3.33;;
77226;SDS011;66234;47.642;19.144;2024-02-23T03:21:18;5.30;;;2.50;;
77226;SDS011;66234;47.642;19.144;2024-02-23T03:24:21;4.63;;;2.70;;
77226;SDS011;66234;47.642;19.144;2024-02-23T03:27:27;4.13;;;2.60;;
77226;SDS011;66234;47.642;19.144;2024-02-23T03:30:31;2.67;;;2.17;;
77226;SDS011;66234;47.642;19.144;2024-02-23T03:33:37;4.57;;;2.60;;
77226;SDS011;66234;47.642;19.144;2024-02-23T03:36:40;5.33;;;2.63;;
77226;SDS011;66234;47.642;19.144;2024-02-23T03:39:43;5.05;;;2.63;;
77226;SDS011;66234;47.642;19.144;2024-02-23T03:42:45;7.68;;;3.60;;
77226;SDS011;66234;47.642;19.144;2024-02-23T03:45:48;4.85;;;2.95;;
77226;SDS011;66234;47.642;19.144;2024-02-23T03:48:51;5.73;;;3.10;;
77226;SDS011;66234;47.642;19.144;2024-02-23T03:51:54;4.87;;;3.10;;
77226;SDS011;66234;47.642;19.144;2024-02-23T03:54:58;4.95;;;3.28;;
77226;SDS011;66234;47.642;19.144;2024-02-23T03:58:01;5.85;;;2.95;;
77226;SDS011;66234;47.642;19.144;2024-02-23T04:01:04;5.20;;;3.22;;
77226;SDS011;66234;47.642;19.144;2024-02-23T04:04:07;6.63;;;3.33;;
77226;SDS011;66234;47.642;19.144;2024-02-23T04:07:10;5.20;;;3.17;;
77226;SDS011;66234;47.642;19.144;2024-02-23T04:10:12;6.53;;;3.60;;
77226;SDS011;66234;47.642;19.144;2024-02-23T04:13:18;6.93;;;5.07;;
77226;SDS011;66234;47.642;19.144;2024-02-23T04:16:22;7.20;;;4.75;;
77226;SDS011;66234;47.642;19.144;2024-02-23T04:19:27;6.60;;;5.13;;
77226;SDS011;66234;47.642;19.144;2024-02-23T04:22:29;5.97;;;4.30;;
77226;SDS011;66234;47.642;19.144;2024-02-23T04:25:32;5.75;;;4.85;;
77226;SDS011;66234;47.642;19.144;2024-02-23T04:28:37;5.28;;;4.78;;
77226;SDS011;66234;47.642;19.144;2024-02-23T04:31:40;6.95;;;4.68;;
77226;SDS011;66234;47.642;19.144;2024-02-23T04:34:43;7.50;;;5.63;;
77226;SDS011;66234;47.642;19.144;2024-02-23T04:37:45;7.93;;;5.80;;
77226;SDS011;66234;47.642;19.144;2024-02-23T04:40:49;7.70;;;5.95;;
77226;SDS011;66234;47.642;19.144;2024-02-23T04:43:51;6.45;;;5.85;;
77226;SDS011;66234;47.642;19.144;2024-02-23T04:47:03;6.03;;;5.55;;
77226;SDS011;66234;47.642;19.144;2024-02-23T04:50:06;7.00;;;6.30;;
77226;SDS011;66234;47.642;19.144;2024-02-23T04:53:11;6.87;;;6.17;;
77226;SDS011;66234;47.642;19.144;2024-02-23T04:56:13;6.65;;;6.05;;
77226;SDS011;66234;47.642;19.144;2024-02-23T04:59:16;7.20;;;5.90;;
77226;SDS011;66234;47.642;19.144;2024-02-23T05:02:18;7.05;;;6.38;;
77226;SDS011;66234;47.642;19.144;2024-02-23T05:05:21;7.03;;;6.43;;
77226;SDS011;66234;47.642;19.144;2024-02-23T05:08:25;6.73;;;6.13;;
77226;SDS011;66234;47.642;19.144;2024-02-23T05:11:29;6.55;;;6.05;;
77226;SDS011;66234;47.642;19.144;2024-02-23T05:14:32;7.13;;;6.53;;
77226;SDS011;66234;47.642;19.144;2024-02-23T05:17:35;7.43;;;6.72;;
77226;SDS011;66234;47.642;19.144;2024-02-23T05:20:38;6.97;;;6.37;;
77226;SDS011;66234;47.642;19.144;2024-02-23T05:23:41;7.40;;;6.70;;
77226;SDS011;66234;47.642;19.144;2024-02-23T05:26:46;7.55;;;6.20;;
77226;SDS011;66234;47.642;19.144;2024-02-23T05:29:48;7.30;;;5.70;;
77226;SDS011;66234;47.642;19.144;2024-02-23T05:32:51;8.60;;;5.75;;
77226;SDS011;66234;47.642;19.144;2024-02-23T05:35:54;5.57;;;5.07;;
77226;SDS011;66234;47.642;19.144;2024-02-23T05:38:56;5.87;;;4.53;;
77226;SDS011;66234;47.642;19.144;2024-02-23T05:41:59;7.38;;;4.85;;
77226;SDS011;66234;47.642;19.144;2024-02-23T05:45:02;4.97;;;4.10;;
77226;SDS011;66234;47.642;19.144;2024-02-23T05:48:11;5.10;;;4.35;;
77226;SDS011;66234;47.642;19.144;2024-02-23T05:51:14;5.40;;;4.00;;
77226;SDS011;66234;47.642;19.144;2024-02-23T05:54:16;4.47;;;4.07;;
77226;SDS011;66234;47.642;19.144;2024-02-23T05:57:19;5.38;;;4.55;;
77226;SDS011;66234;47.642;19.144;2024-02-23T06:00:22;7.43;;;4.68;;
77226;SDS011;66234;47.642;19.144;2024-02-23T06:03:24;6.07;;;5.47;;
77226;SDS011;66234;47.642;19.144;2024-02-23T06:06:28;4.93;;;4.53;;
77226;SDS011;66234;47.642;19.144;2024-02-23T06:09:31;6.77;;;6.17;;
77226;SDS011;66234;47.642;19.144;2024-02-23T06:12:34;8.32;;;6.40;;
77226;SDS011;66234;47.642;19.144;2024-02-23T06:15:37;7.43;;;6.63;;
77226;SDS011;66234;47.642;19.144;2024-02-23T06:18:40;7.40;;;6.70;;
77226;SDS011;66234;47.642;19.144;2024-02-23T06:21:43;7.70;;;7.00;;
77226;SDS011;66234;47.642;19.144;2024-02-23T06:24:50;7.53;;;6.83;;
77226;SDS011;66234;47.642;19.144;2024-02-23T06:27:58;7.80;;;7.10;;
77226;SDS011;66234;47.642;19.144;2024-02-23T06:31:01;7.82;;;7.13;;
77226;SDS011;66234;47.642;19.144;2024-02-23T06:34:06;14.35;;;11.35;;
77226;SDS011;66234;47.642;19.144;2024-02-23T06:37:10;13.97;;;11.50;;
77226;SDS011;66234;47.642;19.144;2024-02-23T06:40:13;10.50;;;9.70;;
77226;SDS011;66234;47.642;19.144;2024-02-23T06:43:16;11.73;;;10.90;;
77226;SDS011;66234;47.642;19.144;2024-02-23T06:46:22;14.45;;;13.25;;
77226;SDS011;66234;47.642;19.144;2024-02-23T06:49:25;16.30;;;14.98;;
77226;SDS011;66234;47.642;19.144;2024-02-23T06:52:28;15.07;;;14.07;;
77226;SDS011;66234;47.642;19.144;2024-02-23T06:55:31;15.60;;;14.30;;
77226;SDS011;66234;47.642;19.144;2024-02-23T06:58:34;15.52;;;14.40;;
77226;SDS011;66234;47.642;19.144;2024-02-23T07:01:47;17.10;;;15.93;;
77226;SDS011;66234;47.642;19.144;2024-02-23T07:04:58;18.10;;;16.80;;
77226;SDS011;66234;47.642;19.144;2024-02-23T07:08:01;20.70;;;18.97;;
77226;SDS011;66234;47.642;19.144;2024-02-23T07:11:04;19.83;;;18.23;;
77226;SDS011;66234;47.642;19.144;2024-02-23T07:14:08;20.40;;;18.65;;
77226;SDS011;66234;47.642;19.144;2024-02-23T07:17:12;19.50;;;17.80;;
77226;SDS011;66234;47.642;19.144;2024-02-23T07:20:16;19.35;;;17.88;;
77226;SDS011;66234;47.642;19.144;2024-02-23T07:23:21;19.87;;;18.03;;
77226;SDS011;66234;47.642;19.144;2024-02-23T07:26:25;19.43;;;17.90;;
77226;SDS011;66234;47.642;19.144;2024-02-23T07:29:30;20.30;;;18.55;;
77226;SDS011;66234;47.642;19.144;2024-02-23T07:32:34;18.13;;;16.73;;
77226;SDS011;66234;47.642;19.144;2024-02-23T07:35:39;18.65;;;17.17;;
77226;SDS011;66234;47.642;19.144;2024-02-23T07:38:51;18.57;;;16.93;;
77226;SDS011;66234;47.642;19.144;2024-02-23T07:41:55;18.07;;;16.67;;
77226;SDS011;66234;47.642;19.144;2024-02-23T07:44:58;18.40;;;17.00;;
77226;SDS011;66234;47.642;19.144;2024-02-23T07:48:01;17.60;;;16.15;;
77226;SDS011;66234;47.642;19.144;2024-02-23T07:51:04;17.40;;;16.17;;
77226;SDS011;66234;47.642;19.144;2024-02-23T07:54:10;18.10;;;16.70;;
77226;SDS011;66234;47.642;19.144;2024-02-23T07:57:13;17.60;;;16.10;;
77226;SDS011;66234;47.642;19.144;2024-02-23T08:00:19;17.40;;;16.00;;
77226;SDS011;66234;47.642;19.144;2024-02-23T08:03:24;18.08;;;16.48;;
77226;SDS011;66234;47.642;19.144;2024-02-23T08:06:29;19.42;;;17.77;;
77226;SDS011;66234;47.642;19.144;2024-02-23T08:09:32;17.67;;;16.13;;
77226;SDS011;66234;47.642;19.144;2024-02-23T08:12:37;18.30;;;16.73;;
77226;SDS011;66234;47.642;19.144;2024-02-23T08:15:44;17.05;;;15.75;;
77226;SDS011;66234;47.642;19.144;2024-02-23T08:18:53;17.23;;;15.82;;
77226;SDS011;66234;47.642;19.144;2024-02-23T08:21:56;15.45;;;14.00;;
77226;SDS011;66234;47.642;19.144;2024-02-23T08:24:59;16.23;;;15.00;;
77226;SDS011;66234;47.642;19.144;2024-02-23T08:28:02;15.57;;;14.37;;
77226;SDS011;66234;47.642;19.144;2024-02-23T08:31:05;14.43;;;13.23;;
77226;SDS011;66234;47.642;19.144;2024-02-23T08:34:08;13.73;;;12.52;;
77226;SDS011;66234;47.642;19.144;2024-02-23T08:37:13;13.77;;;12.55;;
77226;SDS011;66234;47.642;19.144;2024-02-23T08:40:24;14.07;;;12.97;;
77226;SDS011;66234;47.642;19.144;2024-02-23T08:43:27;10.37;;;9.57;;
77226;SDS011;66234;47.642;19.144;2024-02-23T08:46:30;11.45;;;10.45;;
77226;SDS011;66234;47.642;19.144;2024-02-23T08:49:33;10.70;;;9.80;;
77226;SDS011;66234;47.642;19.144;2024-02-23T08:52:36;9.93;;;8.93;;
77226;SDS011;66234;47.642;19.144;2024-02-23T08:55:38;9.40;;;8.60;;
77226;SDS011;66234;47.642;19.144;2024-02-23T08:58:41;7.23;;;6.63;;
77226;SDS011;66234;47.642;19.144;2024-02-23T09:01:44;13.23;;;7.57;;
77226;SDS011;66234;47.642;19.144;2024-02-23T09:04:49;7.43;;;6.80;;
77226;SDS011;66234;47.642;19.144;2024-02-23T09:07:51;7.78;;;7.07;;
77226;SDS011;66234;47.642;19.144;2024-02-23T09:10:55;8.07;;;7.17;;
77226;SDS011;66234;47.642;19.144;2024-02-23T09:13:58;6.53;;;5.90;;
77226;SDS011;66234;47.642;19.144;2024-02-23T09:17:01;8.57;;;6.85;;
77226;SDS011;66234;47.642;19.144;2024-02-23T09:20:06;5.50;;;5.00;;
77226;SDS011;66234;47.642;19.144;2024-02-23T09:23:10;5.38;;;4.72;;
77226;SDS011;66234;47.642;19.144;2024-02-23T09:26:14;6.87;;;4.83;;
77226;SDS011;66234;47.642;19.144;2024-02-23T09:29:21;7.63;;;4.70;;
77226;SDS011;66234;47.642;19.144;2024-02-23T09:32:25;4.88;;;4.10;;
77226;SDS011;66234;47.642;19.144;2024-02-23T09:35:29;4.97;;;4.50;;
77226;SDS011;66234;47.642;19.144;2024-02-23T09:38:31;7.07;;;5.13;;
77226;SDS011;66234;47.642;19.144;2024-02-23T09:41:35;6.80;;;4.53;;
77226;SDS011;66234;47.642;19.144;2024-02-23T09:44:41;4.47;;;3.50;;
77226;SDS011;66234;47.642;19.144;2024-02-23T09:47:48;5.38;;;3.63;;
77226;SDS011;66234;47.642;19.144;2024-02-23T09:50:52;4.65;;;3.92;;
77226;SDS011;66234;47.642;19.144;2024-02-23T09:53:56;7.25;;;4.68;;
77226;SDS011;66234;47.642;19.144;2024-02-23T09:56:59;6.80;;;4.20;;
77226;SDS011;66234;47.642;19.144;2024-02-23T10:00:06;5.80;;;3.63;;
77226;SDS011;66234;47.642;19.144;2024-02-23T10:03:14;4.00;;;2.80;;
77226;SDS011;66234;47.642;19.144;2024-02-23T10:06:17;5.28;;;3.10;;
77226;SDS011;66234;47.642;19.144;2024-02-23T10:09:20;5.15;;;3.17;;
77226;SDS011;66234;47.642;19.144;2024-02-23T10:12:24;3.60;;;3.17;;
77226;SDS011;66234;47.642;19.144;2024-02-23T10:15:29;4.17;;;3.00;;
77226;SDS011;66234;47.642;19.144;2024-02-23T10:18:39;4.47;;;3.00;;
77226;SDS011;66234;47.642;19.144;2024-02-23T10:21:42;5.93;;;2.90;;
77226;SDS011;66234;47.642;19.144;2024-02-23T10:24:45;4.10;;;2.47;;
77226;SDS011;66234;47.642;19.144;2024-02-23T10:27:49;2.27;;;1.50;;
77226;SDS011;66234;47.642;19.144;2024-02-23T10:30:52;2.37;;;1.20;;
77226;SDS011;66234;47.642;19.144;2024-02-23T10:33:56;2.78;;;1.20;;
77226;SDS011;66234;47.642;19.144;2024-02-23T10:37:01;2.15;;;1.40;;
77226;SDS011;66234;47.642;19.144;2024-02-23T10:40:13;1.17;;;0.77;;
77226;SDS011;66234;47.642;19.144;2024-02-23T10:43:19;2.07;;;1.03;;
77226;SDS011;66234;47.642;19.144;2024-02-23T10:46:25;1.50;;;1.10;;
77226;SDS011;66234;47.642;19.144;2024-02-23T10:49:31;2.13;;;1.25;;
77226;SDS011;66234;47.642;19.144;2024-02-23T10:52:35;2.63;;;1.70;;
77226;SDS011;66234;47.642;19.144;2024-02-23T10:55:40;2.97;;;1.85;;
77226;SDS011;66234;47.642;19.144;2024-02-23T10:58:49;2.73;;;1.70;;
77226;SDS011;66234;47.642;19.144;2024-02-23T11:01:53;2.07;;;1.40;;
77226;SDS011;66234;47.642;19.144;2024-02-23T11:05:01;1.90;;;1.70;;
77226;SDS011;66234;47.642;19.144;2024-02-23T11:08:07;2.67;;;1.30;;
77226;SDS011;66234;47.642;19.144;2024-02-23T11:11:11;1.85;;;1.23;;
77226;SDS011;66234;47.642;19.144;2024-02-23T11:14:15;2.37;;;1.27;;
77226;SDS011;66234;47.642;19.144;2024-02-23T11:17:18;2.87;;;1.30;;
77226;SDS011;66234;47.642;19.144;2024-02-23T11:20:22;1.95;;;1.23;;
77226;SDS011;66234;47.642;19.144;2024-02-23T11:23:39;3.75;;;1.58;;
77226;SDS011;66234;47.642;19.144;2024-02-23T11:26:57;1.85;;;1.45;;
77226;SDS011;66234;47.642;19.144;2024-02-23T11:30:10;2.37;;;1.37;;
77226;SDS011;66234;47.642;19.144;2024-02-23T11:33:14;3.80;;;1.90;;
77226;SDS011;66234;47.642;19.144;2024-02-23T11:36:28;4.72;;;2.10;;
77226;SDS011;66234;47.642;19.144;2024-02-23T11:39:34;6.90;;;2.20;;
77226;SDS011;66234;47.642;19.144;2024-02-23T11:42:43;3.60;;;2.30;;
77226;SDS011;66234;47.642;19.144;2024-02-23T11:45:49;5.30;;;3.30;;
77226;SDS011;66234;47.642;19.144;2024-02-23T11:48:54;5.87;;;3.20;;
77226;SDS011;66234;47.642;19.144;2024-02-23T11:52:01;7.60;;;3.88;;
77226;SDS011;66234;47.642;19.144;2024-02-23T11:55:03;5.28;;;3.45;;
77226;SDS011;66234;47.642;19.144;2024-02-23T11:58:20;8.85;;;4.55;;
77226;SDS011;66234;47.642;19.144;2024-02-23T12:01:23;9.67;;;4.43;;
77226;SDS011;66234;47.642;19.144;2024-02-23T12:04:26;7.30;;;4.23;;
77226;SDS011;66234;47.642;19.144;2024-02-23T12:07:31;6.80;;;4.40;;
77226;SDS011;66234;47.642;19.144;2024-02-23T12:10:37;7.82;;;4.38;;
77226;SDS011;66234;47.642;19.144;2024-02-23T12:13:40;9.98;;;4.60;;
77226;SDS011;66234;47.642;19.144;2024-02-23T12:16:45;7.53;;;3.60;;
77226;SDS011;66234;47.642;19.144;2024-02-23T12:20:01;6.03;;;3.87;;
77226;SDS011;66234;47.642;19.144;2024-02-23T12:23:06;6.15;;;4.07;;
77226;SDS011;66234;47.642;19.144;2024-02-23T12:26:13;6.85;;;4.22;;
77226;SDS011;66234;47.642;19.144;2024-02-23T12:29:16;6.13;;;4.63;;
77226;SDS011;66234;47.642;19.144;2024-02-23T12:32:20;8.10;;;4.87;;
77226;SDS011;66234;47.642;19.144;2024-02-23T12:35:24;7.57;;;5.03;;
77226;SDS011;66234;47.642;19.144;2024-02-23T12:38:26;7.50;;;5.00;;
77226;SDS011;66234;47.642;19.144;2024-02-23T12:41:29;7.05;;;4.63;;
77226;SDS011;66234;47.642;19.144;2024-02-23T12:44:32;7.70;;;4.80;;
77226;SDS011;66234;47.642;19.144;2024-02-23T12:47:35;8.23;;;5.13;;
77226;SDS011;66234;47.642;19.144;2024-02-23T12:50:38;8.47;;;4.73;;
77226;SDS011;66234;47.642;19.144;2024-02-23T12:53:41;8.02;;;5.00;;
77226;SDS011;66234;47.642;19.144;2024-02-23T12:56:45;7.40;;;4.63;;
77226;SDS011;66234;47.642;19.144;2024-02-23T12:59:48;8.00;;;4.78;;
77226;SDS011;66234;47.642;19.144;2024-02-23T13:02:51;9.30;;;4.73;;
77226;SDS011;66234;47.642;19.144;2024-02-23T13:05:54;8.77;;;4.60;;
77226;SDS011;66234;47.642;19.144;2024-02-23T13:08:58;10.98;;;5.95;;
77226;SDS011;66234;47.642;19.144;2024-02-23T13:12:06;9.93;;;5.38;;
77226;SDS011;66234;47.642;19.144;2024-02-23T13:15:09;10.77;;;6.60;;
77226;SDS011;66234;47.642;19.144;2024-02-23T13:18:11;9.47;;;5.93;;
77226;SDS011;66234;47.642;19.144;2024-02-23T13:21:14;11.80;;;6.20;;
77226;SDS011;66234;47.642;19.144;2024-02-23T13:24:17;10.25;;;6.13;;
77226;SDS011;66234;47.642;19.144;2024-02-23T13:27:24;10.68;;;6.40;;
77226;SDS011;66234;47.642;19.144;2024-02-23T13:30:27;9.88;;;6.20;;
77226;SDS011;66234;47.642;19.144;2024-02-23T13:33:30;10.60;;;6.43;;
77226;SDS011;66234;47.642;19.144;2024-02-23T13:36:33;10.60;;;6.17;;
77226;SDS011;66234;47.642;19.144;2024-02-23T13:39:36;8.40;;;5.88;;
77226;SDS011;66234;47.642;19.144;2024-02-23T13:42:39;12.23;;;6.47;;
77226;SDS011;66234;47.642;19.144;2024-02-23T13:45:48;9.85;;;6.15;;
77226;SDS011;66234;47.642;19.144;2024-02-23T13:49:03;10.53;;;6.90;;
77226;SDS011;66234;47.642;19.144;2024-02-23T13:52:08;11.47;;;7.00;;
77226;SDS011;66234;47.642;19.144;2024-02-23T13:55:10;11.32;;;6.90;;
77226;SDS011;66234;47.642;19.144;2024-02-23T13:58:13;11.45;;;6.70;;
77226;SDS011;66234;47.642;19.144;2024-02-23T14:01:15;12.20;;;7.88;;
77226;SDS011;66234;47.642;19.144;2024-02-23T14:04:18;11.10;;;7.30;;
77226;SDS011;66234;47.642;19.144;2024-02-23T14:07:21;11.83;;;7.47;;
77226;SDS011;66234;47.642;19.144;2024-02-23T14:10:23;13.70;;;6.97;;
77226;SDS011;66234;47.642;19.144;2024-02-23T14:13:26;10.23;;;7.25;;
77226;SDS011;66234;47.642;19.144;2024-02-23T14:16:29;13.75;;;7.57;;
77226;SDS011;66234;47.642;19.144;2024-02-23T14:19:32;13.47;;;7.77;;
77226;SDS011;66234;47.642;19.144;2024-02-23T14:22:37;12.80;;;8.13;;
77226;SDS011;66234;47.642;19.144;2024-02-23T14:25:39;15.48;;;9.35;;
77226;SDS011;66234;47.642;19.144;2024-02-23T14:28:42;20.15;;;10.15;;
77226;SDS011;66234;47.642;19.144;2024-02-23T14:31:45;16.00;;;9.15;;
77226;SDS011;66234;47.642;19.144;2024-02-23T14:34:48;17.60;;;9.27;;
77226;SDS011;66234;47.642;19.144;2024-02-23T14:37:52;16.23;;;10.00;;
77226;SDS011;66234;47.642;19.144;2024-02-23T14:40:54;19.17;;;11.25;;
77226;SDS011;66234;47.642;19.144;2024-02-23T14:43:59;14.82;;;9.85;;
77226;SDS011;66234;47.642;19.144;2024-02-23T14:47:02;19.73;;;11.50;;
77226;SDS011;66234;47.642;19.144;2024-02-23T14:50:06;24.97;;;15.77;;
77226;SDS011;66234;47.642;19.144;2024-02-23T14:53:10;39.57;;;23.67;;
77226;SDS011;66234;47.642;19.144;2024-02-23T14:56:14;35.92;;;22.30;;
77226;SDS011;66234;47.642;19.144;2024-02-23T14:59:17;27.48;;;15.10;;
77226;SDS011;66234;47.642;19.144;2024-02-23T15:02:20;21.25;;;13.63;;
77226;SDS011;66234;47.642;19.144;2024-02-23T15:05:24;26.53;;;12.70;;
77226;SDS011;66234;47.642;19.144;2024-02-23T15:08:27;20.23;;;13.20;;
77226;SDS011;66234;47.642;19.144;2024-02-23T15:11:30;18.58;;;11.18;;
77226;SDS011;66234;47.642;19.144;2024-02-23T15:14:34;17.38;;;10.13;;
77226;SDS011;66234;47.642;19.144;2024-02-23T15:17:37;20.38;;;10.93;;
77226;SDS011;66234;47.642;19.144;2024-02-23T15:20:45;18.03;;;11.23;;
77226;SDS011;66234;47.642;19.144;2024-02-23T15:23:50;18.87;;;11.77;;
77226;SDS011;66234;47.642;19.144;2024-02-23T15:26:52;19.60;;;11.45;;
77226;SDS011;66234;47.642;19.144;2024-02-23T15:29:55;18.23;;;11.02;;
77226;SDS011;66234;47.642;19.144;2024-02-23T15:32:58;23.17;;;12.05;;
77226;SDS011;66234;47.642;19.144;2024-02-23T15:36:01;23.47;;;11.37;;
77226;SDS011;66234;47.642;19.144;2024-02-23T15:39:07;24.67;;;12.10;;
77226;SDS011;66234;47.642;19.144;2024-02-23T15:42:10;22.15;;;11.93;;
77226;SDS011;66234;47.642;19.144;2024-02-23T15:45:13;20.05;;;10.45;;
77226;SDS011;66234;47.642;19.144;2024-02-23T15:48:15;20.63;;;11.40;;
77226;SDS011;66234;47.642;19.144;2024-02-23T15:51:18;18.60;;;11.03;;
77226;SDS011;66234;47.642;19.144;2024-02-23T15:54:41;17.53;;;9.17;;
77226;SDS011;66234;47.642;19.144;2024-02-23T15:57:44;15.57;;;9.82;;
77226;SDS011;66234;47.642;19.144;2024-02-23T16:00:47;13.63;;;8.95;;
77226;SDS011;66234;47.642;19.144;2024-02-23T16:03:51;19.23;;;10.20;;
77226;SDS011;66234;47.642;19.144;2024-02-23T16:06:53;19.67;;;9.73;;
77226;SDS011;66234;47.642;19.144;2024-02-23T16:09:56;19.53;;;10.80;;
77226;SDS011;66234;47.642;19.144;2024-02-23T16:12:59;16.33;;;10.13;;
77226;SDS011;66234;47.642;19.144;2024-02-23T16:16:03;18.73;;;10.18;;
77226;SDS011;66234;47.642;19.144;2024-02-23T16:19:10;20.05;;;10.10;;
77226;SDS011;66234;47.642;19.144;2024-02-23T16:22:16;17.57;;;10.60;;
77226;SDS011;66234;47.642;19.144;2024-02-23T16:25:19;19.87;;;11.67;;
77226;SDS011;66234;47.642;19.144;2024-02-23T16:28:22;23.77;;;14.00;;
77226;SDS011;66234;47.642;19.144;2024-02-23T16:31:25;22.88;;;14.73;;
77226;SDS011;66234;47.642;19.144;2024-02-23T16:34:29;46.97;;;26.70;;
77226;SDS011;66234;47.642;19.144;2024-02-23T16:37:34;41.43;;;23.03;;
77226;SDS011;66234;47.642;19.144;2024-02-23T16:40:36;37.43;;;20.40;;
77226;SDS011;66234;47.642;19.144;2024-02-23T16:43:40;41.17;;;26.00;;
77226;SDS011;66234;47.642;19.144;2024-02-23T16:46:43;44.17;;;27.70;;
77226;SDS011;66234;47.642;19.144;2024-02-23T16:49:46;34.67;;;22.55;;
77226;SDS011;66234;47.642;19.144;2024-02-23T16:52:49;25.00;;;15.80;;
77226;SDS011;66234;47.642;19.144;2024-02-23T16:55:52;30.17;;;19.10;;
77226;SDS011;66234;47.642;19.144;2024-02-23T16:58:57;33.85;;;21.65;;
77226;SDS011;66234;47.642;19.144;2024-02-23T17:02:00;43.40;;;25.17;;
77226;SDS011;66234;47.642;19.144;2024-02-23T17:05:03;53.83;;;27.73;;
77226;SDS011;66234;47.642;19.144;2024-02-23T17:08:06;54.93;;;29.10;;
77226;SDS011;66234;47.642;19.144;2024-02-23T17:11:09;62.77;;;31.17;;
77226;SDS011;66234;47.642;19.144;2024-02-23T17:14:12;54.33;;;29.17;;
77226;SDS011;66234;47.642;19.144;2024-02-23T17:17:15;47.13;;;25.52;;
77226;SDS011;66234;47.642;19.144;2024-02-23T17:20:21;43.80;;;22.08;;
77226;SDS011;66234;47.642;19.144;2024-02-23T17:23:26;34.60;;;20.73;;
77226;SDS011;66234;47.642;19.144;2024-02-23T17:26:29;31.23;;;18.37;;
77226;SDS011;66234;47.642;19.144;2024-02-23T17:29:32;32.50;;;18.15;;
77226;SDS011;66234;47.642;19.144;2024-02-23T17:32:36;23.95;;;15.70;;
77226;SDS011;66234;47.642;19.144;2024-02-23T17:35:39;32.25;;;18.65;;
77226;SDS011;66234;47.642;19.144;2024-02-23T17:38:42;46.83;;;23.33;;
77226;SDS011;66234;47.642;19.144;2024-02-23T17:41:45;40.43;;;21.30;;
77226;SDS011;66234;47.642;19.144;2024-02-23T17:44:49;31.98;;;17.88;;
77226;SDS011;66234;47.642;19.144;2024-02-23T17:47:52;25.80;;;15.73;;
77226;SDS011;66234;47.642;19.144;2024-02-23T17:50:57;25.23;;;14.70;;
77226;SDS011;66234;47.642;19.144;2024-02-23T17:54:00;20.70;;;13.27;;
77226;SDS011;66234;47.642;19.144;2024-02-23T17:57:03;24.07;;;12.63;;
77226;SDS011;66234;47.642;19.144;2024-02-23T18:00:06;21.77;;;12.75;;
77226;SDS011;66234;47.642;19.144;2024-02-23T18:03:11;23.77;;;12.60;;